Inicio METAR Ruta Wind Satelite

Informe Meteorológico

Fecha: 2024/06/18 19:14:27 Local
2024.06.19 00:14 UTC


Operación:MVFR
SKAR 190000Z 00000KT 9999 BKN025 SCT100 22/20 Q1014 =

SKAR 182200Z 17003KT 130V210 9999 SCT023 BKN090 24/21 Q1013
SKAR 182100Z 00000KT 9999 SCT023 BKN090 23/21 Q1013 RERA
SKAR 182000Z 14004KT 110V180 6000 -RA FEW020CB BKN025 BKN100 22/20 Q1014 RETSRA RMK CB/S
SKAR 181925Z 10003KT 060V130 4000 -TSRA FEW020CB BKN025 BKN100 23/19 Q1014 RETS RMK CB/E/SE
SKAR 181900Z 13003KT 090V200 8000 4000NE TS VCSH FEW020CB BKN025 BKN100 26/19 Q1015 RMK CB VCSH/NE/E